Cedarville, Michigan
Current Conditions -  °F | °C
As of 8:39 PM on Tuesday 21 Oct 2014 (Local Time) from KMCD Reporting Station
Clear Clear  
Wind Chill: 36°   Ceiling: Unl
Heat Index: 40°   Visibility: 10mi
Dew Point: 33°   Wind: 6mph
Humidity: 75%   Direction: 350°N
Pressure: 30.27"   Gusts: NA
Location:  46°N, 84.36°W
Report Text: KMCD 220039Z AUTO 35005KT 10SM CLR 05/01 A3027 RMK AO2 T00460005
Loading
Personal Weather Stations






























Interactive Weather Map
Tropical Storm Tracking
New forecast layout! Learn more

10-Day Weather Forecast

Advertisements
Track Severe Weather on mobile